createdAt,value
2022-10-31T00:01:25.319Z,25.69
2022-10-31T00:03:52.245Z,25.23
2022-10-31T00:06:19.419Z,24.71
2022-10-31T00:08:48.264Z,24.91
2022-10-31T00:11:15.397Z,24.71
2022-10-31T00:13:42.524Z,24.66
2022-10-31T00:16:21.517Z,25.07
2022-10-31T00:18:54.223Z,24.75
2022-10-31T00:21:22.462Z,24.67
2022-10-31T00:23:50.071Z,24.69
2022-10-31T00:26:17.222Z,24.62
2022-10-31T00:28:44.544Z,24.70
2022-10-31T00:31:13.779Z,24.96
2022-10-31T00:33:42.121Z,24.73
2022-10-31T00:36:14.331Z,24.84
2022-10-31T00:38:43.101Z,24.59
2022-10-31T00:41:15.579Z,24.76
2022-10-31T00:43:43.914Z,24.66
2022-10-31T00:46:12.581Z,24.68
2022-10-31T00:48:39.576Z,24.38
2022-10-31T00:51:07.518Z,24.53
2022-10-31T00:53:34.487Z,24.53
2022-10-31T00:56:02.406Z,24.43
2022-10-31T00:58:29.528Z,24.37
2022-10-31T01:00:56.953Z,24.87
2022-10-31T01:03:31.079Z,25.47
2022-10-31T01:06:04.645Z,25.33
2022-10-31T01:08:34.369Z,25.03
2022-10-31T01:11:07.694Z,25.00
2022-10-31T01:13:36.252Z,25.15
2022-10-31T01:16:06.060Z,24.98
2022-10-31T01:18:34.861Z,24.99
2022-10-31T01:21:12.323Z,25.06
2022-10-31T01:23:39.976Z,24.73
2022-10-31T01:26:12.444Z,24.47
2022-10-31T01:28:56.573Z,24.85
2022-10-31T01:31:27.642Z,25.03
2022-10-31T01:33:56.140Z,24.25
2022-10-31T01:36:32.752Z,24.53
2022-10-31T01:39:06.885Z,24.76
2022-10-31T01:41:38.339Z,24.93
2022-10-31T01:44:25.910Z,25.16
2022-10-31T01:47:33.874Z,24.97
2022-10-31T01:50:05.937Z,25.06
2022-10-31T01:52:48.189Z,24.89
2022-10-31T01:55:26.510Z,25.15
2022-10-31T01:58:03.897Z,24.61
2022-10-31T02:00:31.545Z,24.37
2022-10-31T02:03:00.431Z,24.33
2022-10-31T02:05:30.749Z,24.63
2022-10-31T02:08:08.062Z,24.79
2022-10-31T02:10:37.839Z,24.76
2022-10-31T02:13:07.395Z,24.74
2022-10-31T02:15:39.815Z,24.89
2022-10-31T02:18:07.935Z,24.91
2022-10-31T02:20:51.886Z,24.93
2022-10-31T02:23:51.956Z,25.05
2022-10-31T02:27:10.685Z,25.24
2022-10-31T02:30:12.091Z,25.16
2022-10-31T02:33:32.497Z,24.88
2022-10-31T02:36:13.764Z,24.79
2022-10-31T02:39:13.666Z,24.91
2022-10-31T02:42:07.172Z,24.79
2022-10-31T02:44:58.500Z,24.71
2022-10-31T02:47:30.216Z,24.43
2022-10-31T02:50:15.478Z,24.51
2022-10-31T02:52:42.421Z,24.19
2022-10-31T02:55:27.947Z,24.57
2022-10-31T02:58:13.408Z,24.52
2022-10-31T03:01:06.219Z,24.50
2022-10-31T03:04:17.449Z,24.79
2022-10-31T03:07:12.572Z,24.82
2022-10-31T03:09:57.998Z,24.67
2022-10-31T03:12:46.151Z,24.71
2022-10-31T03:15:35.203Z,24.56
2022-10-31T03:18:09.340Z,24.62
2022-10-31T03:20:43.439Z,24.66
2022-10-31T03:23:16.295Z,24.68
2022-10-31T03:25:47.866Z,24.46
2022-10-31T03:30:52.998Z,24.26
2022-10-31T03:33:27.788Z,24.26
2022-10-31T03:35:59.901Z,24.31
2022-10-31T03:38:27.720Z,24.18
2022-10-31T03:40:57.071Z,24.31
2022-10-31T03:43:32.938Z,24.44
2022-10-31T03:46:00.571Z,24.06
2022-10-31T03:48:28.855Z,24.00
2022-10-31T03:51:24.244Z,24.38
2022-10-31T03:54:01.385Z,24.26
2022-10-31T03:56:38.423Z,24.28
2022-10-31T03:59:33.077Z,24.36
2022-10-31T04:02:08.268Z,24.39
2022-10-31T04:04:36.491Z,24.33
2022-10-31T04:07:08.081Z,24.15
2022-10-31T04:09:39.644Z,24.27
2022-10-31T04:12:09.852Z,24.19
2022-10-31T04:14:42.682Z,24.05
2022-10-31T04:17:14.993Z,24.07
2022-10-31T04:19:43.241Z,23.72
2022-10-31T04:22:10.403Z,23.55
2022-10-31T04:24:41.618Z,23.87
2022-10-31T04:27:10.896Z,23.64
2022-10-31T04:29:38.342Z,23.76
2022-10-31T04:32:05.971Z,23.90
2022-10-31T04:34:32.943Z,23.83
2022-10-31T04:36:59.852Z,23.68
2022-10-31T04:39:26.935Z,23.58
2022-10-31T04:42:20.115Z,23.66
2022-10-31T04:44:47.196Z,23.64
2022-10-31T04:47:15.053Z,23.62
2022-10-31T04:49:43.378Z,23.73
2022-10-31T04:52:12.060Z,23.56
2022-10-31T04:54:39.331Z,23.59
2022-10-31T04:57:49.303Z,23.89
2022-10-31T05:00:20.821Z,23.96
2022-10-31T05:02:56.367Z,23.95
2022-10-31T05:05:29.595Z,23.96
2022-10-31T05:07:57.262Z,23.78
2022-10-31T05:10:30.229Z,23.97
2022-10-31T05:13:02.743Z,24.05
2022-10-31T05:16:08.788Z,23.57
2022-10-31T05:18:54.345Z,23.57
2022-10-31T05:21:40.177Z,23.44
2022-10-31T05:24:08.937Z,23.52
2022-10-31T05:26:36.691Z,23.52
2022-10-31T05:29:03.609Z,23.47
2022-10-31T05:31:30.621Z,23.46
2022-10-31T05:33:57.968Z,23.45
2022-10-31T05:36:43.411Z,23.56
2022-10-31T05:39:13.381Z,23.62
2022-10-31T05:41:43.222Z,24.16
2022-10-31T05:44:16.045Z,24.35
2022-10-31T05:46:54.946Z,24.29
2022-10-31T05:49:24.457Z,24.36
2022-10-31T05:52:23.368Z,23.92
2022-10-31T05:54:57.117Z,23.97
2022-10-31T05:57:24.271Z,23.77
2022-10-31T05:59:55.001Z,23.41
2022-10-31T06:02:23.559Z,23.30
2022-10-31T06:05:14.429Z,22.80
2022-10-31T06:07:42.115Z,23.02
2022-10-31T06:10:10.389Z,22.80
2022-10-31T06:12:38.688Z,23.32
2022-10-31T06:15:24.128Z,23.51
2022-10-31T06:18:04.971Z,23.73
2022-10-31T06:20:35.979Z,23.25
2022-10-31T06:23:05.462Z,23.63
2022-10-31T06:25:34.137Z,23.69
2022-10-31T06:28:01.315Z,23.69
2022-10-31T06:30:57.280Z,23.18
2022-10-31T06:33:24.485Z,22.53
2022-10-31T06:35:57.498Z,23.21
2022-10-31T06:38:26.971Z,23.70
2022-10-31T06:40:54.668Z,23.66
2022-10-31T06:43:23.835Z,23.68
2022-10-31T06:46:03.164Z,23.77
2022-10-31T06:48:43.071Z,23.74
2022-10-31T06:51:16.210Z,23.43
2022-10-31T06:53:43.194Z,22.82
2022-10-31T06:56:12.147Z,23.50
2022-10-31T06:58:46.549Z,23.50
2022-10-31T07:01:14.296Z,23.51
2022-10-31T07:03:41.262Z,23.47
2022-10-31T07:06:08.661Z,23.48
2022-10-31T07:08:35.628Z,23.59
2022-10-31T07:11:02.672Z,23.67
2022-10-31T07:13:30.646Z,23.63
2022-10-31T07:16:11.545Z,23.89
2022-10-31T07:18:38.560Z,23.64
2022-10-31T07:21:06.501Z,23.67
2022-10-31T07:23:33.558Z,23.56
2022-10-31T07:26:35.864Z,23.68
2022-10-31T07:29:03.278Z,23.57
2022-10-31T07:31:30.270Z,23.31
2022-10-31T07:34:03.552Z,23.49
2022-10-31T07:36:56.630Z,23.14
2022-10-31T07:39:23.620Z,23.66
2022-10-31T07:41:50.692Z,24.24
2022-10-31T07:44:19.965Z,24.10
2022-10-31T07:47:07.049Z,24.19
2022-10-31T07:49:52.844Z,23.49
2022-10-31T07:52:40.121Z,23.26
2022-10-31T07:55:25.692Z,23.85
2022-10-31T07:58:04.416Z,24.20
2022-10-31T08:00:33.714Z,23.98
2022-10-31T08:03:06.691Z,24.09
2022-10-31T08:05:58.032Z,23.87
2022-10-31T08:08:44.938Z,22.95
2022-10-31T08:11:12.084Z,23.42
2022-10-31T08:13:39.549Z,23.65
2022-10-31T08:16:08.497Z,23.89
2022-10-31T08:18:40.616Z,23.65
2022-10-31T08:21:11.412Z,23.70
2022-10-31T08:23:38.462Z,23.75
2022-10-31T08:26:07.023Z,23.86
2022-10-31T08:28:34.007Z,23.62
2022-10-31T08:31:00.981Z,23.76
2022-10-31T08:33:39.928Z,23.95
2022-10-31T08:36:18.992Z,23.97
2022-10-31T08:38:51.801Z,24.10
2022-10-31T08:41:19.056Z,23.96
2022-10-31T08:43:46.309Z,24.02
2022-10-31T08:46:13.842Z,24.10
2022-10-31T08:48:42.837Z,24.27
2022-10-31T08:51:11.643Z,24.37
2022-10-31T08:53:38.601Z,24.29
2022-10-31T08:56:25.577Z,24.31
2022-10-31T08:58:54.601Z,24.63
2022-10-31T09:01:31.122Z,24.46
2022-10-31T09:03:58.859Z,24.40
2022-10-31T09:06:28.451Z,24.27
2022-10-31T09:08:58.743Z,24.56
2022-10-31T09:11:26.242Z,24.79
2022-10-31T09:14:28.218Z,25.04
2022-10-31T09:17:33.603Z,24.97
2022-10-31T09:20:23.013Z,24.92
2022-10-31T09:23:02.011Z,25.21
2022-10-31T09:25:31.252Z,25.16
2022-10-31T09:28:24.977Z,24.94
2022-10-31T09:30:54.756Z,24.82
2022-10-31T09:34:00.111Z,24.70
2022-10-31T09:36:40.097Z,24.70
2022-10-31T09:39:21.582Z,25.36
2022-10-31T09:42:07.782Z,25.58
2022-10-31T09:44:56.861Z,25.68
2022-10-31T09:48:00.328Z,25.62
2022-10-31T09:50:44.405Z,25.51
2022-10-31T09:53:43.850Z,25.48
2022-10-31T09:56:20.434Z,25.02
2022-10-31T09:58:54.923Z,25.71
2022-10-31T10:01:35.883Z,26.19
2022-10-31T10:04:33.807Z,26.49
2022-10-31T10:07:22.012Z,26.45
2022-10-31T10:10:24.678Z,26.57
2022-10-31T10:13:14.139Z,25.91
2022-10-31T10:16:00.654Z,26.47
2022-10-31T10:18:44.991Z,25.66
2022-10-31T10:21:32.862Z,25.95
2022-10-31T10:24:11.336Z,25.11
2022-10-31T10:26:43.976Z,25.32
2022-10-31T10:29:43.602Z,26.68
2022-10-31T10:32:21.235Z,26.58
2022-10-31T10:35:28.420Z,26.02
2022-10-31T10:38:29.234Z,26.46
2022-10-31T10:40:56.988Z,26.18
2022-10-31T10:43:27.922Z,26.41
2022-10-31T10:47:22.734Z,26.56
2022-10-31T10:49:53.632Z,25.97
2022-10-31T10:52:54.538Z,27.01
2022-10-31T10:55:40.657Z,26.50
2022-10-31T10:58:11.823Z,26.67
2022-10-31T11:00:47.186Z,26.63
2022-10-31T11:03:18.926Z,26.93
2022-10-31T11:06:02.877Z,27.06
2022-10-31T11:08:34.896Z,26.41
2022-10-31T11:11:09.355Z,27.30
2022-10-31T11:13:37.281Z,26.34
2022-10-31T11:16:13.295Z,26.82
2022-10-31T11:18:48.458Z,26.78
2022-10-31T11:21:27.167Z,26.52
2022-10-31T11:24:12.356Z,26.96
2022-10-31T11:26:41.221Z,26.22
2022-10-31T11:29:26.050Z,26.55
2022-10-31T11:31:56.276Z,25.19
2022-10-31T11:34:34.508Z,25.96
2022-10-31T11:37:21.070Z,26.49
2022-10-31T11:39:56.092Z,26.56
2022-10-31T11:42:27.672Z,25.58
2022-10-31T11:44:56.556Z,26.89
2022-10-31T11:47:30.034Z,27.64
2022-10-31T11:49:58.742Z,26.51
2022-10-31T11:52:33.546Z,27.62
2022-10-31T11:55:37.396Z,26.73
2022-10-31T11:58:05.763Z,26.16
2022-10-31T12:00:37.820Z,26.23
2022-10-31T12:03:25.088Z,26.60
2022-10-31T12:06:08.476Z,26.74
2022-10-31T12:08:37.829Z,26.72
2022-10-31T12:11:20.263Z,26.84
2022-10-31T12:14:04.203Z,27.22
2022-10-31T12:16:40.090Z,28.19
2022-10-31T12:19:25.651Z,27.38
2022-10-31T12:22:15.296Z,27.32
2022-10-31T12:25:35.669Z,27.93
2022-10-31T12:28:41.599Z,26.25
2022-10-31T12:31:51.660Z,27.26
2022-10-31T12:35:02.720Z,27.16
2022-10-31T12:37:59.425Z,27.10
2022-10-31T12:41:12.834Z,27.13
2022-10-31T12:44:06.129Z,27.51
2022-10-31T12:47:15.667Z,26.93
2022-10-31T12:50:03.403Z,27.62
2022-10-31T12:52:48.300Z,26.69
2022-10-31T12:55:39.612Z,27.10
2022-10-31T12:58:19.733Z,26.80
2022-10-31T13:00:51.498Z,26.71
2022-10-31T13:03:30.011Z,27.41
2022-10-31T13:06:07.669Z,27.59
2022-10-31T13:09:01.224Z,27.39
2022-10-31T13:11:37.677Z,27.04
2022-10-31T13:14:26.021Z,26.99
2022-10-31T13:16:55.083Z,26.73
2022-10-31T13:19:44.395Z,26.92
2022-10-31T13:22:27.372Z,26.18
2022-10-31T13:25:10.419Z,26.46
2022-10-31T13:27:54.129Z,26.94
2022-10-31T13:30:23.964Z,26.67
2022-10-31T13:33:43.001Z,26.77
2022-10-31T13:36:36.458Z,26.73
2022-10-31T13:39:40.492Z,26.43
2022-10-31T13:43:01.309Z,26.99
2022-10-31T13:45:29.263Z,26.12
2022-10-31T13:48:16.455Z,26.83
2022-10-31T13:51:00.592Z,27.19
2022-10-31T13:53:57.402Z,26.70
2022-10-31T13:56:31.618Z,26.98
2022-10-31T13:59:10.310Z,26.78
2022-10-31T14:01:38.178Z,26.95
2022-10-31T14:04:40.296Z,27.94
2022-10-31T14:07:18.161Z,28.25
2022-10-31T14:10:07.799Z,29.03
2022-10-31T14:12:44.712Z,27.90
2022-10-31T14:15:19.255Z,28.20
2022-10-31T14:18:07.414Z,29.37
2022-10-31T14:20:42.160Z,29.23
2022-10-31T14:23:35.834Z,29.59
2022-10-31T14:26:27.380Z,28.94
2022-10-31T14:29:04.279Z,28.89
2022-10-31T14:31:40.513Z,27.39
2022-10-31T14:34:35.957Z,27.51
2022-10-31T14:37:15.721Z,27.88
2022-10-31T14:40:06.485Z,27.63
2022-10-31T14:42:56.799Z,29.22
2022-10-31T14:45:59.228Z,29.03
2022-10-31T14:48:47.617Z,28.81
2022-10-31T14:51:24.542Z,27.80
2022-10-31T14:53:55.695Z,27.15
2022-10-31T14:56:36.605Z,27.41
2022-10-31T14:59:10.460Z,28.39
2022-10-31T15:01:40.540Z,28.64
2022-10-31T15:04:29.867Z,27.71
2022-10-31T15:07:11.735Z,27.54
2022-10-31T15:09:41.283Z,26.77
2022-10-31T15:12:30.852Z,26.93
2022-10-31T15:14:59.483Z,27.97
2022-10-31T15:17:27.306Z,27.90
2022-10-31T15:19:54.973Z,28.27
2022-10-31T15:22:24.993Z,27.47
2022-10-31T15:24:57.093Z,27.03
2022-10-31T15:27:25.718Z,27.03
2022-10-31T15:29:57.608Z,27.15
2022-10-31T15:32:26.517Z,27.31
2022-10-31T15:34:55.556Z,27.50
2022-10-31T15:37:25.850Z,26.97
2022-10-31T15:39:52.950Z,27.06
2022-10-31T15:42:20.257Z,26.91
2022-10-31T15:44:54.406Z,26.98
2022-10-31T15:47:25.256Z,27.76
2022-10-31T15:49:58.403Z,27.73
2022-10-31T15:52:47.984Z,27.47
2022-10-31T15:55:16.826Z,27.93
2022-10-31T15:57:47.016Z,27.21
2022-10-31T16:00:26.491Z,27.56
2022-10-31T16:03:13.341Z,27.55
2022-10-31T16:05:50.665Z,27.64
2022-10-31T16:08:35.949Z,28.25
2022-10-31T16:11:08.845Z,26.99
2022-10-31T16:13:39.452Z,27.03
2022-10-31T16:16:34.078Z,26.92
2022-10-31T16:19:04.559Z,27.68
2022-10-31T16:21:39.555Z,27.45
2022-10-31T16:24:27.429Z,26.84
2022-10-31T16:27:05.907Z,27.30
2022-10-31T16:29:43.991Z,27.20
2022-10-31T16:32:31.304Z,27.45
2022-10-31T16:35:10.562Z,27.31
2022-10-31T16:37:44.237Z,27.07
2022-10-31T16:40:17.444Z,27.23
2022-10-31T16:42:45.941Z,27.01
2022-10-31T16:45:26.767Z,27.08
2022-10-31T16:47:54.215Z,26.46
2022-10-31T16:50:28.727Z,26.58
2022-10-31T16:55:59.375Z,26.46
2022-10-31T16:58:33.045Z,26.73
2022-10-31T17:01:06.371Z,26.72
2022-10-31T17:03:33.537Z,26.49
2022-10-31T17:06:00.489Z,26.56
2022-10-31T17:08:27.547Z,26.31
2022-10-31T17:10:58.990Z,26.68
2022-10-31T17:13:30.460Z,26.18
2022-10-31T17:16:00.926Z,26.19
2022-10-31T17:18:28.959Z,25.92
2022-10-31T17:20:59.729Z,26.10
2022-10-31T17:23:28.417Z,26.08
2022-10-31T17:25:56.570Z,26.01
2022-10-31T17:28:23.659Z,25.45
2022-10-31T17:30:50.733Z,25.44
2022-10-31T17:33:18.040Z,25.41
2022-10-31T17:35:45.643Z,25.27
2022-10-31T17:38:13.145Z,25.48
2022-10-31T17:40:42.365Z,26.05
2022-10-31T17:43:10.749Z,26.06
2022-10-31T17:45:40.799Z,25.33
2022-10-31T17:48:11.011Z,25.25
2022-10-31T17:50:38.179Z,25.47
2022-10-31T17:53:05.423Z,25.62
2022-10-31T17:55:36.219Z,25.36
2022-10-31T17:58:05.206Z,25.96
2022-10-31T18:00:34.466Z,25.97
2022-10-31T18:03:04.382Z,25.58
2022-10-31T18:05:32.103Z,25.61
2022-10-31T18:08:03.671Z,25.40
2022-10-31T18:10:31.671Z,25.35
2022-10-31T18:12:59.504Z,25.77
2022-10-31T18:15:26.912Z,25.64
2022-10-31T18:18:00.576Z,25.45
2022-10-31T18:20:28.137Z,24.87
2022-10-31T18:22:55.486Z,24.98
2022-10-31T18:25:22.463Z,24.95
2022-10-31T18:27:49.766Z,25.19
2022-10-31T18:30:18.739Z,25.14
2022-10-31T18:32:49.526Z,25.55
2022-10-31T18:35:17.016Z,25.42
2022-10-31T18:37:44.353Z,25.16
2022-10-31T18:40:11.728Z,25.07
2022-10-31T18:42:38.882Z,25.23
2022-10-31T18:45:11.987Z,25.36
2022-10-31T18:47:53.920Z,25.20
2022-10-31T18:50:21.643Z,25.26
2022-10-31T18:52:48.577Z,24.81
2022-10-31T18:55:15.767Z,25.03
2022-10-31T18:57:42.780Z,25.05
2022-10-31T19:00:10.672Z,25.07
2022-10-31T19:02:37.666Z,25.04
2022-10-31T19:05:04.979Z,24.30
2022-10-31T19:07:31.953Z,25.03
2022-10-31T19:09:58.910Z,24.90
2022-10-31T19:12:25.824Z,24.78
2022-10-31T19:14:52.801Z,25.06
2022-10-31T19:17:20.003Z,24.67
2022-10-31T19:19:46.958Z,24.52
2022-10-31T19:22:13.898Z,25.10
2022-10-31T19:24:40.876Z,24.34
2022-10-31T19:27:10.089Z,24.87
2022-10-31T19:29:37.004Z,25.02
2022-10-31T19:32:04.166Z,24.94
2022-10-31T19:34:31.179Z,24.65
2022-10-31T19:36:58.116Z,24.77
2022-10-31T19:39:25.052Z,24.43
2022-10-31T19:41:52.123Z,24.64
2022-10-31T19:44:19.181Z,24.61
2022-10-31T19:46:54.184Z,24.25
2022-10-31T19:49:21.678Z,23.95
2022-10-31T19:51:55.282Z,23.01
2022-10-31T19:54:24.580Z,23.16
2022-10-31T19:56:51.613Z,23.61
2022-10-31T19:59:18.628Z,24.35
2022-10-31T20:01:45.689Z,24.61
2022-10-31T20:04:12.898Z,24.01
2022-10-31T20:06:41.468Z,24.68
2022-10-31T20:09:13.746Z,24.41
2022-10-31T20:11:43.089Z,24.91
2022-10-31T20:14:13.832Z,24.28
2022-10-31T20:16:41.679Z,25.19
2022-10-31T20:19:09.219Z,24.21
2022-10-31T20:21:40.979Z,25.40
2022-10-31T20:24:10.553Z,25.23
2022-10-31T20:26:40.666Z,24.57
2022-10-31T20:29:07.992Z,25.14
2022-10-31T20:31:36.436Z,24.46
2022-10-31T20:34:04.436Z,24.70
2022-10-31T20:36:31.762Z,24.95
2022-10-31T20:39:01.814Z,24.93
2022-10-31T20:41:28.928Z,25.14
2022-10-31T20:43:55.966Z,25.00
2022-10-31T20:46:26.179Z,25.26
2022-10-31T20:48:54.369Z,24.61
2022-10-31T20:51:31.799Z,25.12
2022-10-31T20:54:00.623Z,25.51
2022-10-31T20:56:28.820Z,25.51
2022-10-31T20:58:56.883Z,25.09
2022-10-31T21:01:27.753Z,24.49
2022-10-31T21:03:55.131Z,25.11
2022-10-31T21:06:23.633Z,25.44
2022-10-31T21:08:51.885Z,25.30
2022-10-31T21:11:21.356Z,24.98
2022-10-31T21:13:49.511Z,25.09
2022-10-31T21:16:26.530Z,25.19
2022-10-31T21:18:54.220Z,25.19
2022-10-31T21:21:32.706Z,25.62
2022-10-31T21:24:20.254Z,25.29
2022-10-31T21:26:50.355Z,25.40
2022-10-31T21:29:19.079Z,25.42
2022-10-31T21:31:47.434Z,25.10
2022-10-31T21:34:14.889Z,24.86
2022-10-31T21:36:41.872Z,24.90
2022-10-31T21:39:10.189Z,25.03
2022-10-31T21:41:37.934Z,24.83
2022-10-31T21:44:08.149Z,24.56
2022-10-31T21:46:37.149Z,24.33
2022-10-31T21:49:04.449Z,24.17
2022-10-31T21:51:36.860Z,24.80
2022-10-31T21:54:23.226Z,24.60
2022-10-31T21:56:51.793Z,23.75
2022-10-31T21:59:18.772Z,24.35
2022-10-31T22:01:46.111Z,24.43
2022-10-31T22:04:13.263Z,23.82
2022-10-31T22:06:41.513Z,24.40
2022-10-31T22:09:11.689Z,24.69
2022-10-31T22:11:39.776Z,24.40
2022-10-31T22:14:06.975Z,24.73
2022-10-31T22:16:36.372Z,24.98
2022-10-31T22:19:05.861Z,24.70
2022-10-31T22:21:46.508Z,24.73
2022-10-31T22:24:14.506Z,24.74
2022-10-31T22:26:42.126Z,24.56
2022-10-31T22:29:16.039Z,24.90
2022-10-31T22:31:48.458Z,24.91
2022-10-31T22:34:18.917Z,24.83
2022-10-31T22:36:46.209Z,24.67
2022-10-31T22:39:13.986Z,24.67
2022-10-31T22:41:40.992Z,24.27
2022-10-31T22:44:07.961Z,24.49
2022-10-31T22:46:37.246Z,24.27
2022-10-31T22:49:11.984Z,24.72
2022-10-31T22:51:40.642Z,24.59
2022-10-31T22:54:13.144Z,24.63
2022-10-31T22:56:40.197Z,24.43
2022-10-31T22:59:07.451Z,24.48
2022-10-31T23:01:35.088Z,24.25
2022-10-31T23:04:02.554Z,24.57
2022-10-31T23:06:31.651Z,24.47
2022-10-31T23:09:01.321Z,24.52
2022-10-31T23:11:38.764Z,24.93
2022-10-31T23:14:14.349Z,24.77
2022-10-31T23:16:48.032Z,24.55
2022-10-31T23:19:28.770Z,24.60
2022-10-31T23:22:00.397Z,24.56
2022-10-31T23:24:41.992Z,24.62
2022-10-31T23:27:21.871Z,24.54
2022-10-31T23:29:55.464Z,24.61
2022-10-31T23:32:29.203Z,24.72
2022-10-31T23:35:01.305Z,24.21
2022-10-31T23:37:31.118Z,24.70
2022-10-31T23:39:58.770Z,24.22
2022-10-31T23:42:27.276Z,24.39
2022-10-31T23:44:54.380Z,24.41
2022-10-31T23:47:22.299Z,24.33
2022-10-31T23:49:50.775Z,24.28
2022-10-31T23:52:18.688Z,24.44
2022-10-31T23:54:45.843Z,24.38
2022-10-31T23:57:14.808Z,24.52
2022-10-31T23:59:41.707Z,24.03
